sensor_id;sensor_type;location;lat;lon;timestamp;P1;P2;P0
50587;PMS7003;70782;50.514;30.816;2024-01-06T00:01:02;48.50;43.20;27.40
50587;PMS7003;70782;50.514;30.816;2024-01-06T00:02:04;55.20;45.60;28.90
50587;PMS7003;70782;50.514;30.816;2024-01-06T00:03:06;51.20;44.50;27.40
50587;PMS7003;70782;50.514;30.816;2024-01-06T00:04:09;54.70;46.80;30.00
50587;PMS7003;70782;50.514;30.816;2024-01-06T00:05:12;59.60;44.80;29.00
50587;PMS7003;70782;50.514;30.816;2024-01-06T00:06:14;46.40;42.00;27.50
50587;PMS7003;70782;50.514;30.816;2024-01-06T00:07:17;50.90;43.80;28.70
50587;PMS7003;70782;50.514;30.816;2024-01-06T00:08:19;54.90;45.30;28.70
50587;PMS7003;70782;50.514;30.816;2024-01-06T00:09:22;52.40;44.10;28.70
50587;PMS7003;70782;50.514;30.816;2024-01-06T00:10:25;47.70;41.60;26.40
50587;PMS7003;70782;50.514;30.816;2024-01-06T00:11:27;56.10;42.80;28.80
50587;PMS7003;70782;50.514;30.816;2024-01-06T00:12:29;49.70;43.00;28.90
50587;PMS7003;70782;50.514;30.816;2024-01-06T00:13:32;58.80;46.00;28.60
50587;PMS7003;70782;50.514;30.816;2024-01-06T00:14:34;52.80;44.40;29.10
50587;PMS7003;70782;50.514;30.816;2024-01-06T00:15:36;51.10;44.40;28.70
50587;PMS7003;70782;50.514;30.816;2024-01-06T00:16:39;50.90;44.30;29.30
50587;PMS7003;70782;50.514;30.816;2024-01-06T00:17:41;57.50;45.20;30.20
50587;PMS7003;70782;50.514;30.816;2024-01-06T00:18:44;49.90;42.30;26.50
50587;PMS7003;70782;50.514;30.816;2024-01-06T00:19:47;52.73;44.36;30.18
50587;PMS7003;70782;50.514;30.816;2024-01-06T00:20:50;57.20;45.10;30.00
50587;PMS7003;70782;50.514;30.816;2024-01-06T00:21:52;49.40;43.80;29.20
50587;PMS7003;70782;50.514;30.816;2024-01-06T00:22:54;53.40;45.60;29.80
50587;PMS7003;70782;50.514;30.816;2024-01-06T00:23:57;52.90;43.80;28.60
50587;PMS7003;70782;50.514;30.816;2024-01-06T00:24:59;51.60;45.20;28.80
50587;PMS7003;70782;50.514;30.816;2024-01-06T00:26:01;60.00;46.00;30.00
50587;PMS7003;70782;50.514;30.816;2024-01-06T00:27:04;56.80;44.20;27.20
50587;PMS7003;70782;50.514;30.816;2024-01-06T00:28:07;52.30;44.70;29.50
50587;PMS7003;70782;50.514;30.816;2024-01-06T00:29:09;62.60;48.80;30.70
50587;PMS7003;70782;50.514;30.816;2024-01-06T00:30:12;64.40;52.20;33.10
50587;PMS7003;70782;50.514;30.816;2024-01-06T00:31:15;66.20;51.50;30.40
50587;PMS7003;70782;50.514;30.816;2024-01-06T00:32:18;69.60;54.20;34.50
50587;PMS7003;70782;50.514;30.816;2024-01-06T00:33:20;72.50;54.50;35.30
50587;PMS7003;70782;50.514;30.816;2024-01-06T00:34:23;70.90;54.40;33.80
50587;PMS7003;70782;50.514;30.816;2024-01-06T00:35:25;67.30;54.30;33.70
50587;PMS7003;70782;50.514;30.816;2024-01-06T00:36:28;56.30;49.20;31.20
50587;PMS7003;70782;50.514;30.816;2024-01-06T00:37:30;65.70;52.60;31.50
50587;PMS7003;70782;50.514;30.816;2024-01-06T00:38:33;63.70;49.90;31.00
50587;PMS7003;70782;50.514;30.816;2024-01-06T00:39:36;63.30;50.90;31.70
50587;PMS7003;70782;50.514;30.816;2024-01-06T00:40:38;56.10;46.10;29.50
50587;PMS7003;70782;50.514;30.816;2024-01-06T00:41:40;53.80;45.20;29.30
50587;PMS7003;70782;50.514;30.816;2024-01-06T00:42:43;51.30;43.80;27.00
50587;PMS7003;70782;50.514;30.816;2024-01-06T00:43:45;47.60;41.80;27.30
50587;PMS7003;70782;50.514;30.816;2024-01-06T00:44:47;48.40;41.10;25.80
50587;PMS7003;70782;50.514;30.816;2024-01-06T00:45:50;49.90;40.10;26.30
50587;PMS7003;70782;50.514;30.816;2024-01-06T00:46:52;41.80;38.70;25.30
50587;PMS7003;70782;50.514;30.816;2024-01-06T00:47:55;55.50;40.90;25.50
50587;PMS7003;70782;50.514;30.816;2024-01-06T00:48:57;37.70;33.60;21.60
50587;PMS7003;70782;50.514;30.816;2024-01-06T00:50:00;43.40;37.90;24.10
50587;PMS7003;70782;50.514;30.816;2024-01-06T00:51:03;16.40;15.40;14.70
50587;PMS7003;70782;50.514;30.816;2024-01-06T00:52:05;41.40;34.50;23.50
50587;PMS7003;70782;50.514;30.816;2024-01-06T00:53:08;32.20;29.20;22.60
50587;PMS7003;70782;50.514;30.816;2024-01-06T00:54:10;38.40;33.90;22.30
50587;PMS7003;70782;50.514;30.816;2024-01-06T00:55:13;37.20;35.00;23.60
50587;PMS7003;70782;50.514;30.816;2024-01-06T00:56:17;30.00;27.30;22.20
50587;PMS7003;70782;50.514;30.816;2024-01-06T00:57:19;42.20;33.80;20.10
50587;PMS7003;70782;50.514;30.816;2024-01-06T00:58:21;37.80;33.10;22.70
50587;PMS7003;70782;50.514;30.816;2024-01-06T00:59:23;30.20;28.50;19.40
50587;PMS7003;70782;50.514;30.816;2024-01-06T01:00:26;35.20;29.30;20.10
50587;PMS7003;70782;50.514;30.816;2024-01-06T01:01:28;37.80;33.70;21.20
50587;PMS7003;70782;50.514;30.816;2024-01-06T01:02:31;38.70;34.40;21.90
50587;PMS7003;70782;50.514;30.816;2024-01-06T01:03:35;34.20;31.50;20.90
50587;PMS7003;70782;50.514;30.816;2024-01-06T01:04:38;34.60;30.40;21.20
50587;PMS7003;70782;50.514;30.816;2024-01-06T01:05:41;40.10;33.30;20.70
50587;PMS7003;70782;50.514;30.816;2024-01-06T01:06:43;29.30;27.10;20.10
50587;PMS7003;70782;50.514;30.816;2024-01-06T01:07:46;33.90;31.30;22.20
50587;PMS7003;70782;50.514;30.816;2024-01-06T01:08:48;29.00;28.70;19.90
50587;PMS7003;70782;50.514;30.816;2024-01-06T01:09:50;30.10;27.50;19.80
50587;PMS7003;70782;50.514;30.816;2024-01-06T01:10:53;31.70;27.20;17.90
50587;PMS7003;70782;50.514;30.816;2024-01-06T01:11:55;30.50;28.50;18.50
50587;PMS7003;70782;50.514;30.816;2024-01-06T01:12:58;32.00;27.90;19.30
50587;PMS7003;70782;50.514;30.816;2024-01-06T01:14:00;35.40;28.90;20.00
50587;PMS7003;70782;50.514;30.816;2024-01-06T01:15:03;32.00;30.90;20.00
50587;PMS7003;70782;50.514;30.816;2024-01-06T01:16:06;32.09;28.00;19.45
50587;PMS7003;70782;50.514;30.816;2024-01-06T01:17:08;31.40;28.90;19.30
50587;PMS7003;70782;50.514;30.816;2024-01-06T01:18:10;32.80;28.70;19.90
50587;PMS7003;70782;50.514;30.816;2024-01-06T01:19:13;16.60;12.60;0.80
50587;PMS7003;70782;50.514;30.816;2024-01-06T01:20:18;32.20;30.10;20.90
50587;PMS7003;70782;50.514;30.816;2024-01-06T01:21:20;32.90;30.40;20.10
50587;PMS7003;70782;50.514;30.816;2024-01-06T01:22:23;40.00;34.90;22.00
50587;PMS7003;70782;50.514;30.816;2024-01-06T01:23:25;37.20;31.40;22.00
50587;PMS7003;70782;50.514;30.816;2024-01-06T01:24:27;35.80;32.40;22.30
50587;PMS7003;70782;50.514;30.816;2024-01-06T01:25:30;39.90;36.30;23.60
50587;PMS7003;70782;50.514;30.816;2024-01-06T01:26:33;43.40;38.60;23.10
50587;PMS7003;70782;50.514;30.816;2024-01-06T01:27:35;36.80;32.50;21.70
50587;PMS7003;70782;50.514;30.816;2024-01-06T01:28:37;40.00;38.20;23.60
50587;PMS7003;70782;50.514;30.816;2024-01-06T01:29:40;43.60;37.90;22.10
50587;PMS7003;70782;50.514;30.816;2024-01-06T01:30:42;36.60;31.90;20.30
50587;PMS7003;70782;50.514;30.816;2024-01-06T01:31:46;34.40;30.20;19.90
50587;PMS7003;70782;50.514;30.816;2024-01-06T01:32:48;33.60;31.90;21.10
50587;PMS7003;70782;50.514;30.816;2024-01-06T01:33:51;34.90;33.40;23.20
50587;PMS7003;70782;50.514;30.816;2024-01-06T01:34:54;31.70;28.90;18.90
50587;PMS7003;70782;50.514;30.816;2024-01-06T01:35:56;38.30;35.00;22.70
50587;PMS7003;70782;50.514;30.816;2024-01-06T01:37:00;32.90;31.40;19.70
50587;PMS7003;70782;50.514;30.816;2024-01-06T01:38:03;36.80;32.50;21.20
50587;PMS7003;70782;50.514;30.816;2024-01-06T01:39:05;42.80;35.70;23.60
50587;PMS7003;70782;50.514;30.816;2024-01-06T01:40:09;35.70;32.40;19.60
50587;PMS7003;70782;50.514;30.816;2024-01-06T01:41:12;31.00;28.90;18.20
50587;PMS7003;70782;50.514;30.816;2024-01-06T01:42:14;29.60;28.50;19.10
50587;PMS7003;70782;50.514;30.816;2024-01-06T01:43:19;26.80;24.80;17.90
50587;PMS7003;70782;50.514;30.816;2024-01-06T01:44:22;25.70;20.00;12.50
50587;PMS7003;70782;50.514;30.816;2024-01-06T01:45:24;24.00;24.00;16.50
50587;PMS7003;70782;50.514;30.816;2024-01-06T01:46:27;26.70;23.20;15.90
50587;PMS7003;70782;50.514;30.816;2024-01-06T01:47:31;27.00;25.00;16.10
50587;PMS7003;70782;50.514;30.816;2024-01-06T01:48:34;24.73;20.82;14.09
50587;PMS7003;70782;50.514;30.816;2024-01-06T01:49:37;23.27;20.73;13.36
50587;PMS7003;70782;50.514;30.816;2024-01-06T01:50:40;18.20;17.20;12.00
50587;PMS7003;70782;50.514;30.816;2024-01-06T01:51:42;18.70;18.30;13.30
50587;PMS7003;70782;50.514;30.816;2024-01-06T01:52:45;20.90;20.40;13.30
50587;PMS7003;70782;50.514;30.816;2024-01-06T01:53:48;25.82;22.36;14.18
50587;PMS7003;70782;50.514;30.816;2024-01-06T01:54:51;22.50;22.40;16.30
50587;PMS7003;70782;50.514;30.816;2024-01-06T01:55:54;21.00;19.30;14.20
50587;PMS7003;70782;50.514;30.816;2024-01-06T01:56:58;19.20;17.70;12.20
50587;PMS7003;70782;50.514;30.816;2024-01-06T01:58:00;18.80;18.20;13.10
50587;PMS7003;70782;50.514;30.816;2024-01-06T01:59:07;16.70;16.70;9.70
50587;PMS7003;70782;50.514;30.816;2024-01-06T02:00:17;17.30;13.70;10.70
50587;PMS7003;70782;50.514;30.816;2024-01-06T02:01:20;15.09;14.18;10.64
50587;PMS7003;70782;50.514;30.816;2024-01-06T02:02:23;16.18;14.00;10.18
50587;PMS7003;70782;50.514;30.816;2024-01-06T02:03:26;13.10;13.10;9.60
50587;PMS7003;70782;50.514;30.816;2024-01-06T02:04:30;17.80;17.20;11.60
50587;PMS7003;70782;50.514;30.816;2024-01-06T02:05:33;19.90;19.00;11.90
50587;PMS7003;70782;50.514;30.816;2024-01-06T02:06:36;26.40;20.50;14.00
50587;PMS7003;70782;50.514;30.816;2024-01-06T02:07:38;25.40;21.80;13.40
50587;PMS7003;70782;50.514;30.816;2024-01-06T02:08:41;17.90;16.70;13.40
50587;PMS7003;70782;50.514;30.816;2024-01-06T02:09:43;23.90;21.70;14.50
50587;PMS7003;70782;50.514;30.816;2024-01-06T02:10:46;29.80;24.00;15.00
50587;PMS7003;70782;50.514;30.816;2024-01-06T02:11:48;28.40;23.00;15.50
50587;PMS7003;70782;50.514;30.816;2024-01-06T02:12:51;28.80;25.40;17.40
50587;PMS7003;70782;50.514;30.816;2024-01-06T02:13:53;31.10;28.70;17.60
50587;PMS7003;70782;50.514;30.816;2024-01-06T02:14:55;31.20;28.20;17.90
50587;PMS7003;70782;50.514;30.816;2024-01-06T02:15:58;30.90;26.40;17.40
50587;PMS7003;70782;50.514;30.816;2024-01-06T02:17:00;31.60;28.90;17.90
50587;PMS7003;70782;50.514;30.816;2024-01-06T02:18:03;30.40;27.70;17.80
50587;PMS7003;70782;50.514;30.816;2024-01-06T02:19:06;28.80;24.10;15.90
50587;PMS7003;70782;50.514;30.816;2024-01-06T02:20:11;24.40;21.30;13.90
50587;PMS7003;70782;50.514;30.816;2024-01-06T02:21:14;20.00;18.73;10.82
50587;PMS7003;70782;50.514;30.816;2024-01-06T02:22:17;31.30;24.80;15.60
50587;PMS7003;70782;50.514;30.816;2024-01-06T02:23:19;26.90;24.50;14.90
50587;PMS7003;70782;50.514;30.816;2024-01-06T02:24:22;26.30;22.80;14.20
50587;PMS7003;70782;50.514;30.816;2024-01-06T02:25:26;25.70;23.20;15.70
50587;PMS7003;70782;50.514;30.816;2024-01-06T02:26:29;24.50;21.60;15.00
50587;PMS7003;70782;50.514;30.816;2024-01-06T02:27:31;21.30;18.50;13.10
50587;PMS7003;70782;50.514;30.816;2024-01-06T02:28:33;23.70;20.00;13.20
50587;PMS7003;70782;50.514;30.816;2024-01-06T02:29:36;18.40;18.00;13.20
50587;PMS7003;70782;50.514;30.816;2024-01-06T02:30:38;23.50;17.60;13.50
50587;PMS7003;70782;50.514;30.816;2024-01-06T02:31:40;20.40;18.10;11.70
50587;PMS7003;70782;50.514;30.816;2024-01-06T02:32:43;20.50;19.70;15.00
50587;PMS7003;70782;50.514;30.816;2024-01-06T02:33:45;23.70;22.90;16.00
50587;PMS7003;70782;50.514;30.816;2024-01-06T02:34:48;22.90;18.30;13.50
50587;PMS7003;70782;50.514;30.816;2024-01-06T02:35:50;25.40;24.00;16.20
50587;PMS7003;70782;50.514;30.816;2024-01-06T02:36:52;25.10;22.10;14.80
50587;PMS7003;70782;50.514;30.816;2024-01-06T02:37:55;25.80;23.80;15.70
50587;PMS7003;70782;50.514;30.816;2024-01-06T02:38:57;29.30;25.30;16.70
50587;PMS7003;70782;50.514;30.816;2024-01-06T02:39:59;32.00;26.50;19.10
50587;PMS7003;70782;50.514;30.816;2024-01-06T02:41:02;32.50;28.80;19.30
50587;PMS7003;70782;50.514;30.816;2024-01-06T02:42:05;33.91;28.73;18.55
50587;PMS7003;70782;50.514;30.816;2024-01-06T02:43:08;31.00;30.90;19.80
50587;PMS7003;70782;50.514;30.816;2024-01-06T02:44:10;37.64;30.73;18.82
50587;PMS7003;70782;50.514;30.816;2024-01-06T02:45:15;27.20;21.60;16.80
50587;PMS7003;70782;50.514;30.816;2024-01-06T02:46:18;33.10;27.30;20.30
50587;PMS7003;70782;50.514;30.816;2024-01-06T02:47:20;34.90;33.30;20.60
50587;PMS7003;70782;50.514;30.816;2024-01-06T02:48:23;36.50;35.40;21.40
50587;PMS7003;70782;50.514;30.816;2024-01-06T02:49:25;35.40;30.70;18.90
50587;PMS7003;70782;50.514;30.816;2024-01-06T02:50:28;32.80;29.30;20.50
50587;PMS7003;70782;50.514;30.816;2024-01-06T02:51:30;34.30;31.30;20.60
50587;PMS7003;70782;50.514;30.816;2024-01-06T02:52:33;37.30;32.90;21.30
50587;PMS7003;70782;50.514;30.816;2024-01-06T02:53:35;38.00;32.10;21.30
50587;PMS7003;70782;50.514;30.816;2024-01-06T02:54:38;31.40;30.10;19.10
50587;PMS7003;70782;50.514;30.816;2024-01-06T02:55:40;22.00;19.80;9.00
50587;PMS7003;70782;50.514;30.816;2024-01-06T02:56:42;32.80;30.60;19.40
50587;PMS7003;70782;50.514;30.816;2024-01-06T02:57:45;32.20;28.10;17.10
50587;PMS7003;70782;50.514;30.816;2024-01-06T02:58:47;29.10;23.10;11.00
50587;PMS7003;70782;50.514;30.816;2024-01-06T02:59:50;21.80;21.20;18.40
50587;PMS7003;70782;50.514;30.816;2024-01-06T03:00:52;36.00;32.30;19.80
50587;PMS7003;70782;50.514;30.816;2024-01-06T03:01:55;34.30;31.70;20.80
50587;PMS7003;70782;50.514;30.816;2024-01-06T03:02:57;32.50;31.20;21.30
50587;PMS7003;70782;50.514;30.816;2024-01-06T03:04:00;33.10;31.40;19.00
50587;PMS7003;70782;50.514;30.816;2024-01-06T03:05:02;33.40;30.40;19.20
50587;PMS7003;70782;50.514;30.816;2024-01-06T03:06:06;37.20;30.70;20.50
50587;PMS7003;70782;50.514;30.816;2024-01-06T03:07:09;31.70;28.20;15.80
50587;PMS7003;70782;50.514;30.816;2024-01-06T03:08:11;39.60;33.40;20.10
50587;PMS7003;70782;50.514;30.816;2024-01-06T03:09:13;37.50;33.80;20.80
50587;PMS7003;70782;50.514;30.816;2024-01-06T03:10:16;33.90;30.90;19.90
50587;PMS7003;70782;50.514;30.816;2024-01-06T03:11:18;35.40;32.80;22.10
50587;PMS7003;70782;50.514;30.816;2024-01-06T03:12:21;33.40;33.20;19.20
50587;PMS7003;70782;50.514;30.816;2024-01-06T03:13:23;30.60;27.20;19.40
50587;PMS7003;70782;50.514;30.816;2024-01-06T03:14:25;19.70;12.80;1.60
50587;PMS7003;70782;50.514;30.816;2024-01-06T03:15:28;21.60;18.70;10.10
50587;PMS7003;70782;50.514;30.816;2024-01-06T03:16:30;35.50;29.80;18.40
50587;PMS7003;70782;50.514;30.816;2024-01-06T03:17:33;30.50;26.30;16.70
50587;PMS7003;70782;50.514;30.816;2024-01-06T03:18:35;25.82;22.09;15.00
50587;PMS7003;70782;50.514;30.816;2024-01-06T03:19:38;22.27;19.36;12.27
50587;PMS7003;70782;50.514;30.816;2024-01-06T03:20:41;25.60;23.80;14.90
50587;PMS7003;70782;50.514;30.816;2024-01-06T03:21:44;22.30;18.00;12.10
50587;PMS7003;70782;50.514;30.816;2024-01-06T03:22:46;20.90;18.70;13.40
50587;PMS7003;70782;50.514;30.816;2024-01-06T03:23:49;20.80;20.20;14.70
50587;PMS7003;70782;50.514;30.816;2024-01-06T03:24:51;18.10;16.20;10.90
50587;PMS7003;70782;50.514;30.816;2024-01-06T03:25:53;17.80;15.50;11.50
50587;PMS7003;70782;50.514;30.816;2024-01-06T03:26:56;18.30;15.30;9.60
50587;PMS7003;70782;50.514;30.816;2024-01-06T03:27:58;15.20;14.30;10.50
50587;PMS7003;70782;50.514;30.816;2024-01-06T03:29:00;19.20;15.40;11.10
50587;PMS7003;70782;50.514;30.816;2024-01-06T03:30:03;21.50;19.30;14.40
50587;PMS7003;70782;50.514;30.816;2024-01-06T03:31:06;18.30;17.40;12.00
50587;PMS7003;70782;50.514;30.816;2024-01-06T03:32:09;24.40;20.90;15.80
50587;PMS7003;70782;50.514;30.816;2024-01-06T03:33:11;23.60;20.40;15.40
50587;PMS7003;70782;50.514;30.816;2024-01-06T03:34:14;29.30;24.90;18.10
50587;PMS7003;70782;50.514;30.816;2024-01-06T03:35:16;43.40;38.50;26.00
50587;PMS7003;70782;50.514;30.816;2024-01-06T03:36:19;37.10;34.60;24.20
50587;PMS7003;70782;50.514;30.816;2024-01-06T03:37:21;35.90;32.90;23.10
50587;PMS7003;70782;50.514;30.816;2024-01-06T03:38:24;36.20;30.80;21.40
50587;PMS7003;70782;50.514;30.816;2024-01-06T03:39:26;28.30;27.00;19.50
50587;PMS7003;70782;50.514;30.816;2024-01-06T03:40:28;20.40;17.90;14.00
50587;PMS7003;70782;50.514;30.816;2024-01-06T03:41:31;18.30;17.10;12.40
50587;PMS7003;70782;50.514;30.816;2024-01-06T03:42:33;21.90;21.90;16.80
50587;PMS7003;70782;50.514;30.816;2024-01-06T03:43:36;24.40;17.60;14.60
50587;PMS7003;70782;50.514;30.816;2024-01-06T03:44:38;22.00;22.00;16.30
50587;PMS7003;70782;50.514;30.816;2024-01-06T03:45:40;30.50;27.90;23.50
50587;PMS7003;70782;50.514;30.816;2024-01-06T03:46:43;23.20;21.10;15.90
50587;PMS7003;70782;50.514;30.816;2024-01-06T03:47:45;12.90;10.70;9.30
50587;PMS7003;70782;50.514;30.816;2024-01-06T03:48:47;15.20;15.20;11.80
50587;PMS7003;70782;50.514;30.816;2024-01-06T03:49:50;13.45;12.64;10.91
50587;PMS7003;70782;50.514;30.816;2024-01-06T03:50:53;10.90;10.90;8.90
50587;PMS7003;70782;50.514;30.816;2024-01-06T03:51:55;11.70;11.70;9.20
50587;PMS7003;70782;50.514;30.816;2024-01-06T03:52:58;15.90;15.20;11.30
50587;PMS7003;70782;50.514;30.816;2024-01-06T03:54:00;16.90;16.90;13.90
50587;PMS7003;70782;50.514;30.816;2024-01-06T03:55:03;16.20;15.20;11.00
50587;PMS7003;70782;50.514;30.816;2024-01-06T03:56:08;12.10;12.10;8.70
50587;PMS7003;70782;50.514;30.816;2024-01-06T03:57:10;17.40;15.70;12.00
50587;PMS7003;70782;50.514;30.816;2024-01-06T03:58:12;16.20;12.70;9.20
50587;PMS7003;70782;50.514;30.816;2024-01-06T03:59:15;13.00;11.00;7.60
50587;PMS7003;70782;50.514;30.816;2024-01-06T04:00:19;10.60;10.60;7.70
50587;PMS7003;70782;50.514;30.816;2024-01-06T04:01:21;6.50;6.50;4.20
50587;PMS7003;70782;50.514;30.816;2024-01-06T04:02:24;8.00;8.00;6.40
50587;PMS7003;70782;50.514;30.816;2024-01-06T04:03:26;10.40;9.50;6.40
50587;PMS7003;70782;50.514;30.816;2024-01-06T04:04:28;10.00;9.40;6.60
50587;PMS7003;70782;50.514;30.816;2024-01-06T04:05:31;9.00;8.60;5.80
50587;PMS7003;70782;50.514;30.816;2024-01-06T04:06:33;6.40;5.70;3.20
50587;PMS7003;70782;50.514;30.816;2024-01-06T04:07:36;8.90;8.40;6.10
50587;PMS7003;70782;50.514;30.816;2024-01-06T04:08:41;8.20;8.20;6.10
50587;PMS7003;70782;50.514;30.816;2024-01-06T04:09:43;11.80;11.10;7.20
50587;PMS7003;70782;50.514;30.816;2024-01-06T04:10:46;10.60;8.70;5.60
50587;PMS7003;70782;50.514;30.816;2024-01-06T04:11:48;10.50;9.70;6.60
50587;PMS7003;70782;50.514;30.816;2024-01-06T04:12:51;9.60;9.00;7.20
50587;PMS7003;70782;50.514;30.816;2024-01-06T04:13:53;10.30;9.40;6.50
50587;PMS7003;70782;50.514;30.816;2024-01-06T04:14:55;9.40;8.70;6.60
50587;PMS7003;70782;50.514;30.816;2024-01-06T04:15:58;5.20;5.20;3.20
50587;PMS7003;70782;50.514;30.816;2024-01-06T04:17:00;8.00;7.50;5.90
50587;PMS7003;70782;50.514;30.816;2024-01-06T04:18:03;8.80;6.70;6.00
50587;PMS7003;70782;50.514;30.816;2024-01-06T04:19:06;6.20;5.70;4.80
50587;PMS7003;70782;50.514;30.816;2024-01-06T04:20:10;7.60;7.00;5.40
50587;PMS7003;70782;50.514;30.816;2024-01-06T04:21:13;7.90;7.90;6.10
50587;PMS7003;70782;50.514;30.816;2024-01-06T04:22:15;8.30;8.30;5.70
50587;PMS7003;70782;50.514;30.816;2024-01-06T04:23:18;8.20;6.20;5.00
50587;PMS7003;70782;50.514;30.816;2024-01-06T04:24:20;14.60;13.10;10.40
50587;PMS7003;70782;50.514;30.816;2024-01-06T04:25:24;18.70;18.70;11.00
50587;PMS7003;70782;50.514;30.816;2024-01-06T04:26:27;22.30;19.60;15.10
50587;PMS7003;70782;50.514;30.816;2024-01-06T04:27:29;20.40;18.20;15.00
50587;PMS7003;70782;50.514;30.816;2024-01-06T04:28:32;15.00;14.50;10.80
50587;PMS7003;70782;50.514;30.816;2024-01-06T04:29:34;22.00;21.00;15.00
50587;PMS7003;70782;50.514;30.816;2024-01-06T04:30:36;17.80;17.30;14.20
50587;PMS7003;70782;50.514;30.816;2024-01-06T04:31:40;15.80;14.70;11.40
50587;PMS7003;70782;50.514;30.816;2024-01-06T04:32:43;13.70;13.50;9.70
50587;PMS7003;70782;50.514;30.816;2024-01-06T04:33:45;12.00;11.90;9.30
50587;PMS7003;70782;50.514;30.816;2024-01-06T04:34:48;9.30;9.10;7.40
50587;PMS7003;70782;50.514;30.816;2024-01-06T04:35:51;7.80;6.40;5.70
50587;PMS7003;70782;50.514;30.816;2024-01-06T04:36:53;7.80;7.80;6.80
50587;PMS7003;70782;50.514;30.816;2024-01-06T04:37:55;11.10;9.40;7.50
50587;PMS7003;70782;50.514;30.816;2024-01-06T04:38:58;28.80;27.40;20.80
50587;PMS7003;70782;50.514;30.816;2024-01-06T04:40:00;23.00;22.20;17.30
50587;PMS7003;70782;50.514;30.816;2024-01-06T04:41:03;36.70;34.20;24.90
50587;PMS7003;70782;50.514;30.816;2024-01-06T04:42:05;45.80;40.50;27.00
50587;PMS7003;70782;50.514;30.816;2024-01-06T04:43:08;47.30;39.60;26.10
50587;PMS7003;70782;50.514;30.816;2024-01-06T04:44:10;61.50;52.30;34.70
50587;PMS7003;70782;50.514;30.816;2024-01-06T04:45:12;47.70;43.80;28.80
50587;PMS7003;70782;50.514;30.816;2024-01-06T04:46:16;36.90;34.30;24.60
50587;PMS7003;70782;50.514;30.816;2024-01-06T04:47:18;18.30;17.60;12.80
50587;PMS7003;70782;50.514;30.816;2024-01-06T04:48:20;20.70;20.30;13.90
50587;PMS7003;70782;50.514;30.816;2024-01-06T04:49:23;47.30;40.80;26.10
50587;PMS7003;70782;50.514;30.816;2024-01-06T04:50:26;45.70;40.30;27.10
50587;PMS7003;70782;50.514;30.816;2024-01-06T04:51:29;58.90;47.80;31.90
50587;PMS7003;70782;50.514;30.816;2024-01-06T04:52:31;47.40;42.90;28.70
50587;PMS7003;70782;50.514;30.816;2024-01-06T04:53:34;40.70;36.70;25.50
50587;PMS7003;70782;50.514;30.816;2024-01-06T04:54:36;44.30;38.90;26.30
50587;PMS7003;70782;50.514;30.816;2024-01-06T04:55:39;33.45;31.64;21.45
50587;PMS7003;70782;50.514;30.816;2024-01-06T04:56:42;62.20;50.70;33.80
50587;PMS7003;70782;50.514;30.816;2024-01-06T04:57:44;69.00;55.90;37.20
50587;PMS7003;70782;50.514;30.816;2024-01-06T04:58:47;54.90;46.80;32.70
50587;PMS7003;70782;50.514;30.816;2024-01-06T04:59:49;49.30;42.90;30.10
50587;PMS7003;70782;50.514;30.816;2024-01-06T05:00:51;44.20;40.30;27.50
50587;PMS7003;70782;50.514;30.816;2024-01-06T05:01:54;39.30;34.70;25.90
50587;PMS7003;70782;50.514;30.816;2024-01-06T05:02:57;24.70;24.70;17.10
50587;PMS7003;70782;50.514;30.816;2024-01-06T05:03:59;29.80;29.80;24.10
50587;PMS7003;70782;50.514;30.816;2024-01-06T05:05:02;25.80;24.90;21.40
50587;PMS7003;70782;50.514;30.816;2024-01-06T05:06:05;21.50;21.10;17.60
50587;PMS7003;70782;50.514;30.816;2024-01-06T05:07:07;17.90;17.10;13.90
50587;PMS7003;70782;50.514;30.816;2024-01-06T05:08:10;12.80;12.30;10.20
50587;PMS7003;70782;50.514;30.816;2024-01-06T05:09:12;16.80;14.60;10.60
50587;PMS7003;70782;50.514;30.816;2024-01-06T05:10:14;19.10;17.80;14.30
50587;PMS7003;70782;50.514;30.816;2024-01-06T05:11:17;14.20;13.40;9.50
50587;PMS7003;70782;50.514;30.816;2024-01-06T05:12:19;14.30;14.30;10.10
50587;PMS7003;70782;50.514;30.816;2024-01-06T05:13:22;12.80;11.10;8.70
50587;PMS7003;70782;50.514;30.816;2024-01-06T05:14:24;12.80;12.40;9.70
50587;PMS7003;70782;50.514;30.816;2024-01-06T05:15:26;13.70;11.80;8.70
50587;PMS7003;70782;50.514;30.816;2024-01-06T05:16:29;14.20;13.80;10.50
50587;PMS7003;70782;50.514;30.816;2024-01-06T05:17:31;15.40;14.80;11.20
50587;PMS7003;70782;50.514;30.816;2024-01-06T05:18:34;13.00;12.60;9.20
50587;PMS7003;70782;50.514;30.816;2024-01-06T05:19:37;11.73;11.73;9.45
50587;PMS7003;70782;50.514;30.816;2024-01-06T05:20:39;18.80;18.10;11.80
50587;PMS7003;70782;50.514;30.816;2024-01-06T05:21:42;14.50;14.50;10.10
50587;PMS7003;70782;50.514;30.816;2024-01-06T05:22:44;19.30;16.20;14.00
50587;PMS7003;70782;50.514;30.816;2024-01-06T05:23:47;21.70;21.70;16.70
50587;PMS7003;70782;50.514;30.816;2024-01-06T05:24:49;22.70;21.30;15.80
50587;PMS7003;70782;50.514;30.816;2024-01-06T05:25:52;19.50;18.60;14.10
50587;PMS7003;70782;50.514;30.816;2024-01-06T05:26:54;12.60;12.50;11.40
50587;PMS7003;70782;50.514;30.816;2024-01-06T05:27:57;15.60;14.00;11.00
50587;PMS7003;70782;50.514;30.816;2024-01-06T05:28:59;15.80;14.70;11.80
50587;PMS7003;70782;50.514;30.816;2024-01-06T05:30:02;14.40;12.90;11.10
50587;PMS7003;70782;50.514;30.816;2024-01-06T05:31:05;14.00;12.10;9.70
50587;PMS7003;70782;50.514;30.816;2024-01-06T05:32:08;15.80;13.60;11.00
50587;PMS7003;70782;50.514;30.816;2024-01-06T05:33:11;11.70;11.70;9.10
50587;PMS7003;70782;50.514;30.816;2024-01-06T05:34:16;13.00;11.40;9.20
50587;PMS7003;70782;50.514;30.816;2024-01-06T05:35:18;19.80;19.80;15.20
50587;PMS7003;70782;50.514;30.816;2024-01-06T05:36:22;20.70;20.40;17.60
50587;PMS7003;70782;50.514;30.816;2024-01-06T05:37:25;15.80;15.80;13.40
50587;PMS7003;70782;50.514;30.816;2024-01-06T05:38:27;13.80;13.80;11.50
50587;PMS7003;70782;50.514;30.816;2024-01-06T05:39:30;14.90;14.90;12.80
50587;PMS7003;70782;50.514;30.816;2024-01-06T05:40:32;14.30;13.80;10.00
50587;PMS7003;70782;50.514;30.816;2024-01-06T05:42:45;20.20;18.70;14.30
50587;PMS7003;70782;50.514;30.816;2024-01-06T05:43:48;22.10;20.10;16.60
50587;PMS7003;70782;50.514;30.816;2024-01-06T05:44:50;17.70;17.30;14.00
50587;PMS7003;70782;50.514;30.816;2024-01-06T05:45:52;16.10;14.80;11.20
50587;PMS7003;70782;50.514;30.816;2024-01-06T05:46:55;15.60;14.20;10.70
50587;PMS7003;70782;50.514;30.816;2024-01-06T05:47:57;31.70;28.10;19.00
50587;PMS7003;70782;50.514;30.816;2024-01-06T05:49:00;31.30;28.40;19.70